Time;durP1;ratioP1;P1;durP2;ratioP2;P2;SDS_P1;SDS_P2;PMS_P1;PMS_P2;Temp;Humidity;BMP_temperature;BMP_pressure;BME280_temperature;BME280_humidity;BME280_pressure;Samples;Min_cycle;Max_cycle;Signal;HPM_P1;HPM_P2
2021/11/25 00:01:52;;;;;;;426.10;399.33;;;6.20;99.90;;;;;;4377908;32;20161;-62
2021/11/25 00:04:19;;;;;;;427.90;399.53;;;6.20;99.90;;;;;;4382877;32;20178;-62
2021/11/25 00:06:46;;;;;;;451.63;422.63;;;6.20;99.90;;;;;;4370593;32;20160;-62
2021/11/25 00:09:14;;;;;;;440.53;412.67;;;6.30;99.90;;;;;;4385609;32;20173;-61
2021/11/25 00:11:41;;;;;;;421.70;395.03;;;6.30;99.90;;;;;;4378301;32;20143;-61
2021/11/25 00:14:08;;;;;;;411.60;385.37;;;6.20;99.90;;;;;;4381557;32;20238;-61
2021/11/25 00:16:36;;;;;;;431.87;404.33;;;6.20;99.90;;;;;;4372215;32;20171;-62
2021/11/25 00:19:03;;;;;;;429.67;402.23;;;6.20;99.90;;;;;;4370057;32;20188;-62
2021/11/25 00:21:30;;;;;;;416.63;390.40;;;6.30;99.90;;;;;;4381154;32;20165;-62
2021/11/25 00:23:56;;;;;;;427.80;399.77;;;6.30;99.90;;;;;;4376734;32;20532;-62
2021/11/25 00:26:25;;;;;;;442.70;414.33;;;6.40;99.90;;;;;;4375531;32;20182;-61
2021/11/25 00:28:52;;;;;;;415.77;390.00;;;6.30;99.90;;;;;;4375690;32;20195;-62
2021/11/25 00:31:19;;;;;;;415.37;388.73;;;6.40;99.90;;;;;;4375642;32;20216;-62
2021/11/25 00:33:45;;;;;;;436.97;409.30;;;6.30;99.90;;;;;;4382499;32;20175;-62
2021/11/25 00:36:12;;;;;;;412.87;385.93;;;6.30;99.90;;;;;;4376499;32;20137;-61
2021/11/25 00:38:42;;;;;;;422.97;396.23;;;6.40;99.90;;;;;;4375948;32;20157;-61
2021/11/25 00:41:09;;;;;;;418.40;391.53;;;6.40;99.90;;;;;;4376674;32;20541;-62
2021/11/25 00:43:38;;;;;;;420.17;393.30;;;6.40;99.90;;;;;;4385742;32;20222;-62
2021/11/25 00:46:05;;;;;;;417.93;391.53;;;6.40;99.90;;;;;;4377258;32;20155;-61
2021/11/25 00:48:32;;;;;;;429.13;402.57;;;6.40;99.90;;;;;;4378644;32;20159;-62
2021/11/25 00:50:59;;;;;;;430.00;403.67;;;6.40;99.90;;;;;;4380698;32;20231;-61
2021/11/25 00:53:26;;;;;;;422.43;395.73;;;6.40;99.90;;;;;;4380487;32;20208;-62
2021/11/25 00:55:53;;;;;;;434.17;406.23;;;6.40;99.90;;;;;;4377153;32;20159;-61
2021/11/25 00:58:21;;;;;;;421.53;394.90;;;6.40;99.90;;;;;;4376278;32;20173;-61
2021/11/25 01:00:49;;;;;;;455.10;426.90;;;6.40;99.90;;;;;;4374943;32;20573;-62
2021/11/25 01:03:16;;;;;;;411.97;385.63;;;6.40;99.90;;;;;;4375926;32;20158;-62
2021/11/25 01:05:43;;;;;;;422.93;396.70;;;6.50;99.90;;;;;;4376221;32;20171;-62
2021/11/25 01:08:10;;;;;;;426.57;399.87;;;6.50;99.90;;;;;;4377043;32;20171;-62
2021/11/25 01:10:37;;;;;;;431.70;404.23;;;6.40;99.90;;;;;;4375037;32;20188;-62
2021/11/25 01:13:04;;;;;;;441.27;414.40;;;6.40;99.90;;;;;;4374817;32;20144;-62
2021/11/25 01:15:33;;;;;;;435.17;407.00;;;6.40;99.90;;;;;;4390443;32;20151;-62
2021/11/25 01:18:04;;;;;;;418.63;392.83;;;6.40;99.90;;;;;;4381436;32;20164;-61
2021/11/25 01:20:32;;;;;;;423.83;397.67;;;6.40;99.90;;;;;;4381133;32;20479;-62
2021/11/25 01:23:01;;;;;;;408.23;382.53;;;6.50;99.90;;;;;;4389048;32;20182;-62
2021/11/25 01:25:29;;;;;;;424.00;397.67;;;6.40;99.90;;;;;;4377337;32;20164;-61
2021/11/25 01:27:57;;;;;;;425.40;398.53;;;6.40;99.90;;;;;;4367341;32;20163;-62
2021/11/25 01:30:24;;;;;;;418.53;392.33;;;6.40;99.90;;;;;;4383472;32;20607;-61
2021/11/25 01:32:51;;;;;;;425.87;398.80;;;6.40;99.90;;;;;;4384666;32;20175;-61
2021/11/25 01:35:19;;;;;;;420.80;395.33;;;6.40;99.90;;;;;;4392725;32;20179;-61
2021/11/25 01:37:48;;;;;;;426.67;400.27;;;6.40;99.90;;;;;;4381893;32;20498;-62
2021/11/25 01:40:17;;;;;;;443.20;415.80;;;6.40;99.90;;;;;;4386956;32;20147;-62
2021/11/25 01:42:44;;;;;;;416.23;390.77;;;6.40;99.90;;;;;;4393039;32;20299;-61
2021/11/25 01:45:12;;;;;;;431.80;405.50;;;6.40;99.90;;;;;;4380812;32;20513;-59
2021/11/25 01:47:43;;;;;;;432.53;406.07;;;6.40;99.90;;;;;;4388889;32;20168;-61
2021/11/25 01:50:10;;;;;;;419.37;393.17;;;6.40;99.90;;;;;;4390151;32;20168;-61
2021/11/25 01:52:39;;;;;;;435.30;408.23;;;6.40;99.90;;;;;;4379878;32;20179;-61
2021/11/25 01:55:07;;;;;;;418.03;392.33;;;6.30;99.90;;;;;;4386257;32;20603;-61
2021/11/25 01:57:33;;;;;;;433.03;406.80;;;6.30;99.90;;;;;;4385230;32;20572;-61
2021/11/25 02:00:00;;;;;;;406.23;382.13;;;6.30;99.90;;;;;;4379062;32;20152;-62
2021/11/25 02:02:27;;;;;;;440.37;413.27;;;6.30;99.90;;;;;;4377082;32;20191;-61
2021/11/25 02:04:54;;;;;;;426.43;400.63;;;6.40;99.90;;;;;;4373704;32;20208;-61
2021/11/25 02:07:21;;;;;;;422.00;396.03;;;6.30;99.90;;;;;;4380137;32;20171;-61
2021/11/25 02:09:49;;;;;;;424.73;399.33;;;6.40;99.90;;;;;;4389231;32;20188;-62
2021/11/25 02:12:16;;;;;;;419.33;394.07;;;6.40;99.90;;;;;;4378396;32;20159;-61
2021/11/25 02:14:43;;;;;;;416.77;391.30;;;6.40;99.90;;;;;;4379406;32;20476;-61
2021/11/25 02:17:10;;;;;;;425.63;400.17;;;6.30;99.90;;;;;;4379300;32;20152;-61
2021/11/25 02:19:38;;;;;;;432.07;406.03;;;6.30;99.90;;;;;;4377508;32;20160;-61
2021/11/25 02:22:06;;;;;;;411.93;387.53;;;6.30;99.90;;;;;;4379073;32;20182;-61
2021/11/25 02:24:33;;;;;;;433.73;407.47;;;6.30;99.90;;;;;;4378639;32;20187;-61
2021/11/25 02:27:00;;;;;;;420.80;395.77;;;6.20;99.90;;;;;;4365508;32;20183;-61
2021/11/25 02:29:27;;;;;;;419.20;394.27;;;6.30;99.90;;;;;;4362390;33;20156;-61
2021/11/25 02:31:54;;;;;;;422.63;398.03;;;6.20;99.90;;;;;;4367825;32;20608;-61
2021/11/25 02:34:22;;;;;;;415.73;391.40;;;6.20;99.90;;;;;;4377150;32;20172;-61
2021/11/25 02:36:49;;;;;;;424.80;399.93;;;6.20;99.90;;;;;;4376457;32;20217;-61
2021/11/25 02:39:19;;;;;;;425.33;400.57;;;6.20;99.90;;;;;;4390332;32;20159;-61
2021/11/25 02:41:47;;;;;;;414.37;390.73;;;6.30;99.90;;;;;;4390800;32;20170;-61
2021/11/25 02:44:13;;;;;;;436.33;411.13;;;6.30;99.90;;;;;;4379620;32;20152;-61
2021/11/25 02:46:43;;;;;;;428.90;403.03;;;6.30;99.90;;;;;;4384844;32;20178;-61
2021/11/25 02:49:10;;;;;;;446.87;421.03;;;6.30;99.90;;;;;;4390057;32;20249;-61
2021/11/25 02:51:37;;;;;;;441.17;416.00;;;6.30;99.90;;;;;;4390558;32;20223;-61
2021/11/25 02:54:04;;;;;;;415.93;391.73;;;6.30;99.90;;;;;;4378940;32;20153;-62
2021/11/25 02:56:32;;;;;;;419.80;395.60;;;6.20;99.90;;;;;;4388931;32;20178;-60
2021/11/25 02:59:00;;;;;;;409.73;386.07;;;6.30;99.90;;;;;;4386344;32;20160;-60
2021/11/25 03:01:30;;;;;;;422.23;397.97;;;6.30;99.90;;;;;;4377956;32;20194;-60
2021/11/25 03:03:58;;;;;;;419.07;395.13;;;6.20;99.90;;;;;;4376898;32;20517;-62
2021/11/25 03:06:25;;;;;;;445.93;420.67;;;6.20;99.90;;;;;;4377867;32;20168;-62
2021/11/25 03:08:52;;;;;;;420.17;396.53;;;6.20;99.90;;;;;;4376277;32;20164;-62
2021/11/25 03:11:21;;;;;;;407.97;384.83;;;6.20;99.90;;;;;;4379853;32;20228;-62
2021/11/25 03:13:54;;;;;;;409.77;385.93;;;6.20;99.90;;;;;;4376740;32;20171;-62
2021/11/25 03:16:23;;;;;;;412.23;389.17;;;6.20;99.90;;;;;;4387236;32;20182;-62
2021/11/25 03:18:51;;;;;;;406.77;384.10;;;6.30;99.90;;;;;;4391826;32;20174;-60
2021/11/25 03:21:20;;;;;;;412.30;388.67;;;6.30;99.90;;;;;;4381394;32;20168;-60
2021/11/25 03:23:49;;;;;;;406.10;383.87;;;6.20;99.90;;;;;;4385045;32;20148;-61
2021/11/25 03:26:18;;;;;;;400.57;379.07;;;6.20;99.90;;;;;;4385371;32;20183;-62
2021/11/25 03:28:45;;;;;;;410.10;387.47;;;6.20;99.90;;;;;;4378020;32;20156;-62
2021/11/25 03:31:15;;;;;;;412.20;389.37;;;6.10;99.90;;;;;;4378420;32;20597;-61
2021/11/25 03:33:42;;;;;;;436.87;412.53;;;6.10;99.90;;;;;;4371194;32;20174;-60
2021/11/25 03:36:10;;;;;;;409.60;386.53;;;6.00;99.90;;;;;;4379221;32;20168;-60
2021/11/25 03:38:38;;;;;;;413.60;389.67;;;6.00;99.90;;;;;;4379381;32;20164;-60
2021/11/25 03:41:10;;;;;;;436.30;411.77;;;5.90;99.90;;;;;;4378929;32;20160;-60
2021/11/25 03:43:37;;;;;;;419.17;395.77;;;5.90;99.90;;;;;;4387443;32;20156;-61
2021/11/25 03:46:04;;;;;;;424.30;400.53;;;5.90;99.90;;;;;;4386563;32;20167;-60
2021/11/25 03:48:33;;;;;;;423.93;399.97;;;5.90;99.90;;;;;;4377811;32;20515;-61
2021/11/25 03:51:01;;;;;;;427.30;403.57;;;5.90;99.90;;;;;;4384679;32;20178;-60
2021/11/25 03:53:28;;;;;;;428.53;404.10;;;5.90;99.90;;;;;;4361364;32;20153;-60
2021/11/25 03:55:55;;;;;;;412.70;389.90;;;6.00;99.90;;;;;;4381339;32;20174;-60
2021/11/25 03:58:22;;;;;;;429.27;404.93;;;5.90;99.90;;;;;;4376167;32;20164;-60
2021/11/25 04:00:52;;;;;;;434.20;409.20;;;6.00;99.90;;;;;;4379531;32;20160;-60
2021/11/25 04:03:19;;;;;;;428.40;404.10;;;6.10;99.90;;;;;;4375803;32;20152;-61
2021/11/25 04:05:48;;;;;;;430.60;406.40;;;6.00;99.90;;;;;;4386526;32;20571;-61
2021/11/25 04:08:15;;;;;;;424.07;400.00;;;6.00;99.90;;;;;;4384878;32;20488;-60
2021/11/25 04:10:42;;;;;;;429.40;405.13;;;5.90;99.90;;;;;;4375927;32;20166;-60
2021/11/25 04:13:09;;;;;;;423.37;399.97;;;6.00;99.90;;;;;;4381033;32;20182;-61
2021/11/25 04:15:36;;;;;;;425.13;400.63;;;6.00;99.90;;;;;;4390659;32;20167;-61
2021/11/25 04:18:03;;;;;;;425.10;400.57;;;5.90;99.90;;;;;;4377034;32;20149;-60
2021/11/25 04:20:30;;;;;;;410.13;386.57;;;5.90;99.90;;;;;;4379871;32;20171;-61
2021/11/25 04:22:59;;;;;;;420.33;396.03;;;5.90;99.90;;;;;;4384565;32;20162;-61
2021/11/25 04:25:26;;;;;;;432.87;407.77;;;5.90;99.90;;;;;;4375820;32;20211;-61
2021/11/25 04:27:53;;;;;;;419.13;395.57;;;5.90;99.90;;;;;;4377085;32;20577;-61
2021/11/25 04:30:36;;;;;;;431.70;407.13;;;6.00;99.90;;;;;;4377470;32;20170;-60
2021/11/25 04:35:48;;;;;;;418.33;394.53;;;5.90;99.90;;;;;;4365018;32;20333;-60
2021/11/25 04:38:18;;;;;;;427.43;403.00;;;5.80;99.90;;;;;;4362399;32;20227;-61
2021/11/25 04:40:48;;;;;;;419.50;395.73;;;5.80;99.90;;;;;;4382326;32;20519;-61
2021/11/25 04:43:16;;;;;;;431.60;407.97;;;5.80;99.90;;;;;;4340364;32;1691063;-61
2021/11/25 04:45:44;;;;;;;421.40;396.80;;;5.80;99.90;;;;;;4378371;32;20496;-61
2021/11/25 04:48:12;;;;;;;417.57;393.67;;;5.80;99.90;;;;;;4371415;32;20470;-61
2021/11/25 04:50:39;;;;;;;423.60;399.17;;;5.80;99.90;;;;;;4375313;32;20198;-61
2021/11/25 04:53:07;;;;;;;419.00;394.27;;;5.70;99.90;;;;;;4373147;32;20205;-60
2021/11/25 04:55:35;;;;;;;421.00;395.73;;;5.80;99.90;;;;;;4378033;32;20211;-61
2021/11/25 04:58:04;;;;;;;417.17;393.17;;;5.70;99.90;;;;;;4382924;32;20148;-61
2021/11/25 05:00:31;;;;;;;422.13;397.97;;;5.70;99.90;;;;;;4383932;32;20582;-61
2021/11/25 05:02:58;;;;;;;418.17;394.27;;;5.60;99.90;;;;;;4380673;32;20164;-60
2021/11/25 05:05:25;;;;;;;425.83;401.50;;;5.60;99.90;;;;;;4388023;32;20216;-60
2021/11/25 05:07:52;;;;;;;441.07;415.43;;;5.60;99.90;;;;;;4380721;32;20206;-60
2021/11/25 05:10:19;;;;;;;429.20;404.60;;;5.60;99.90;;;;;;4384711;32;20535;-61
2021/11/25 05:12:47;;;;;;;414.20;390.13;;;5.60;99.90;;;;;;4380139;32;20171;-60
2021/11/25 05:15:16;;;;;;;430.70;406.30;;;5.50;99.90;;;;;;4392958;32;20454;-60
2021/11/25 05:17:43;;;;;;;422.17;397.27;;;5.40;99.90;;;;;;4396730;32;20178;-60
2021/11/25 05:20:13;;;;;;;424.30;398.90;;;5.40;99.90;;;;;;4391390;32;20494;-60
2021/11/25 05:22:40;;;;;;;425.23;400.17;;;5.40;99.90;;;;;;4382046;32;20171;-60
2021/11/25 05:25:09;;;;;;;438.80;413.67;;;5.40;99.90;;;;;;4379599;32;20173;-60
2021/11/25 05:27:36;;;;;;;421.70;397.20;;;5.40;99.90;;;;;;4380349;32;20235;-61
2021/11/25 05:30:05;;;;;;;420.80;396.67;;;5.30;99.90;;;;;;4384517;32;20212;-60
2021/11/25 05:32:32;;;;;;;438.50;412.53;;;5.20;99.90;;;;;;4382621;32;20204;-60
2021/11/25 05:34:59;;;;;;;437.27;411.40;;;5.20;99.90;;;;;;4382980;32;20160;-60
2021/11/25 05:37:26;;;;;;;415.97;391.53;;;5.20;99.90;;;;;;4379879;32;20153;-60
2021/11/25 05:39:53;;;;;;;430.10;403.93;;;5.20;99.90;;;;;;4381689;32;20183;-60
2021/11/25 05:42:20;;;;;;;423.53;397.63;;;5.30;99.90;;;;;;4380520;32;20194;-61
2021/11/25 05:44:47;;;;;;;414.73;390.57;;;5.20;99.90;;;;;;4381586;32;20199;-60
2021/11/25 05:47:16;;;;;;;436.07;409.40;;;5.30;99.90;;;;;;4386599;32;20173;-61
2021/11/25 05:49:43;;;;;;;422.40;397.03;;;5.30;99.90;;;;;;4382312;32;20179;-61
2021/11/25 05:52:10;;;;;;;429.70;404.13;;;5.30;99.90;;;;;;4385574;32;20169;-61
2021/11/25 05:54:36;;;;;;;433.50;407.07;;;5.30;99.90;;;;;;4388643;32;20179;-61
2021/11/25 05:57:04;;;;;;;424.73;400.03;;;5.30;99.90;;;;;;4383061;32;20208;-61
2021/11/25 05:59:30;;;;;;;429.57;404.37;;;5.30;99.90;;;;;;4391052;32;20267;-61
2021/11/25 06:01:57;;;;;;;428.33;403.47;;;5.30;99.90;;;;;;4376194;32;20178;-61
2021/11/25 06:04:25;;;;;;;413.03;387.83;;;5.30;99.90;;;;;;4380489;32;20184;-61
2021/11/25 06:06:52;;;;;;;407.87;384.00;;;5.30;99.90;;;;;;4378839;32;20223;-61
2021/11/25 06:09:19;;;;;;;417.77;394.07;;;5.30;99.90;;;;;;4383317;32;20588;-60
2021/11/25 06:11:49;;;;;;;410.37;386.33;;;5.30;99.90;;;;;;4379970;32;20535;-62
2021/11/25 06:14:16;;;;;;;419.97;395.83;;;5.30;99.90;;;;;;4378912;32;20186;-62
2021/11/25 06:16:44;;;;;;;403.17;379.10;;;5.40;99.90;;;;;;4372703;32;20228;-61
2021/11/25 06:19:11;;;;;;;401.30;377.57;;;5.30;99.90;;;;;;4373290;32;20152;-60
2021/11/25 06:22:07;;;;;;;418.57;394.10;;;5.30;99.90;;;;;;4375054;32;20213;-60
2021/11/25 06:24:34;;;;;;;395.90;372.73;;;5.20;99.90;;;;;;4330643;33;20181;-60
2021/11/25 06:27:01;;;;;;;423.07;398.20;;;5.10;99.90;;;;;;4328563;33;20209;-60
2021/11/25 06:29:28;;;;;;;421.20;396.30;;;5.10;99.90;;;;;;4326891;33;20247;-58
2021/11/25 06:31:54;;;;;;;413.57;389.40;;;5.20;99.90;;;;;;4328795;33;20512;-60
2021/11/25 06:34:21;;;;;;;420.77;395.33;;;5.30;99.90;;;;;;4330383;33;20165;-60
2021/11/25 06:36:48;;;;;;;427.43;402.47;;;5.40;99.90;;;;;;4327430;33;20271;-60
2021/11/25 06:39:16;;;;;;;423.20;398.23;;;5.60;99.90;;;;;;4330614;33;20572;-60
2021/11/25 06:41:43;;;;;;;414.10;389.43;;;5.60;99.90;;;;;;4328569;33;20264;-57
2021/11/25 06:44:10;;;;;;;420.17;395.30;;;5.60;99.90;;;;;;4328665;33;20260;-60
2021/11/25 06:46:36;;;;;;;404.47;380.80;;;5.60;99.90;;;;;;4327500;33;20594;-60
2021/11/25 06:49:04;;;;;;;416.43;391.93;;;5.40;99.90;;;;;;4326850;33;20704;-60
2021/11/25 06:51:31;;;;;;;418.90;395.10;;;5.40;99.90;;;;;;4328062;33;20244;-60
2021/11/25 06:53:58;;;;;;;409.70;385.63;;;5.40;99.90;;;;;;4330279;33;20208;-60
2021/11/25 06:56:27;;;;;;;424.83;400.33;;;5.40;99.90;;;;;;4329058;33;20217;-61
2021/11/25 06:58:56;;;;;;;424.07;399.30;;;5.40;99.90;;;;;;4329511;33;20575;-61
2021/11/25 07:01:23;;;;;;;404.67;381.47;;;5.50;99.90;;;;;;4367920;32;20177;-61
2021/11/25 07:03:50;;;;;;;419.57;395.43;;;5.50;99.90;;;;;;4375401;32;20195;-60
2021/11/25 07:06:18;;;;;;;417.17;393.07;;;5.40;99.90;;;;;;4373185;32;20316;-61
2021/11/25 07:08:45;;;;;;;433.63;408.00;;;5.40;99.90;;;;;;4376090;32;20176;-60
2021/11/25 07:11:12;;;;;;;428.67;404.13;;;5.30;99.90;;;;;;4374728;32;20168;-62
2021/11/25 07:13:40;;;;;;;420.67;396.40;;;5.40;99.90;;;;;;4374143;32;20211;-60
2021/11/25 07:16:07;;;;;;;419.23;394.90;;;5.40;99.90;;;;;;4375015;32;20211;-60
2021/11/25 07:18:35;;;;;;;418.13;393.87;;;5.60;99.90;;;;;;4374016;32;20216;-60
2021/11/25 07:21:01;;;;;;;410.50;386.37;;;5.70;99.90;;;;;;4373275;32;20622;-60
2021/11/25 07:23:28;;;;;;;412.13;387.90;;;5.70;99.90;;;;;;4371847;32;20267;-60
2021/11/25 07:25:55;;;;;;;420.70;396.80;;;5.70;99.90;;;;;;4379033;32;20577;-61
2021/11/25 07:28:22;;;;;;;415.00;391.33;;;5.70;99.90;;;;;;4375951;32;20157;-59
2021/11/25 07:30:51;;;;;;;434.43;409.23;;;5.70;99.90;;;;;;4378072;32;20234;-61
2021/11/25 07:33:18;;;;;;;417.97;393.47;;;5.70;99.90;;;;;;4365823;32;20188;-60
2021/11/25 07:35:46;;;;;;;402.00;378.60;;;5.80;99.90;;;;;;4378162;32;20584;-61
2021/11/25 07:38:13;;;;;;;420.17;396.17;;;5.80;99.90;;;;;;4377572;32;20632;-60
2021/11/25 07:40:42;;;;;;;420.10;395.70;;;5.80;99.90;;;;;;4378295;32;20173;-61
2021/11/25 07:43:09;;;;;;;431.77;407.10;;;5.90;99.90;;;;;;4375373;32;20220;-60
2021/11/25 07:45:35;;;;;;;430.93;406.47;;;5.80;99.90;;;;;;4377011;32;20218;-60
2021/11/25 07:48:04;;;;;;;409.17;385.97;;;5.90;99.90;;;;;;4376366;32;20205;-60
2021/11/25 07:50:32;;;;;;;419.83;396.23;;;5.90;99.90;;;;;;4376274;32;20180;-60
2021/11/25 07:52:59;;;;;;;417.53;393.40;;;6.00;99.90;;;;;;4377914;32;20157;-61
2021/11/25 07:55:27;;;;;;;424.73;400.60;;;5.90;99.90;;;;;;4377854;32;20573;-61
2021/11/25 07:57:54;;;;;;;415.67;392.20;;;6.00;99.90;;;;;;4376553;32;20148;-61
2021/11/25 08:00:23;;;;;;;406.83;383.90;;;6.00;99.90;;;;;;4376165;32;20198;-60
2021/11/25 08:02:50;;;;;;;425.27;400.23;;;6.00;99.90;;;;;;4377018;32;20145;-61
2021/11/25 08:05:18;;;;;;;417.60;393.93;;;6.00;99.90;;;;;;4377782;32;20183;-60
2021/11/25 08:07:46;;;;;;;409.73;385.97;;;6.00;99.90;;;;;;4376956;32;20201;-60
2021/11/25 08:10:15;;;;;;;414.13;390.77;;;6.10;99.90;;;;;;4375874;32;20164;-59
2021/11/25 08:12:42;;;;;;;419.17;395.70;;;6.00;99.90;;;;;;4377648;32;20168;-60
2021/11/25 08:15:11;;;;;;;407.03;383.80;;;6.10;99.90;;;;;;4377001;32;20153;-61
2021/11/25 08:17:38;;;;;;;416.93;393.40;;;6.10;99.90;;;;;;4377515;32;20152;-60
2021/11/25 08:20:06;;;;;;;425.40;400.47;;;6.10;99.90;;;;;;4377019;32;20152;-59
2021/11/25 08:22:34;;;;;;;408.60;385.53;;;6.10;99.90;;;;;;4375903;32;20212;-61
2021/11/25 08:25:05;;;;;;;414.07;389.63;;;6.10;99.90;;;;;;4375748;32;20244;-60
2021/11/25 08:27:31;;;;;;;438.77;413.07;;;6.20;99.90;;;;;;4377488;32;20491;-61
2021/11/25 08:29:59;;;;;;;406.33;382.77;;;6.20;99.90;;;;;;4375967;32;20168;-61
2021/11/25 08:32:25;;;;;;;413.03;388.97;;;6.20;99.90;;;;;;4377318;32;20152;-61
2021/11/25 08:34:54;;;;;;;420.40;396.07;;;6.20;99.90;;;;;;4376148;32;20164;-61
2021/11/25 08:37:21;;;;;;;420.27;395.07;;;6.10;99.90;;;;;;4377350;32;20202;-61
2021/11/25 08:39:49;;;;;;;416.73;393.13;;;6.20;99.90;;;;;;4375577;32;20206;-61
2021/11/25 08:42:16;;;;;;;414.87;390.57;;;6.20;99.90;;;;;;4376222;32;20514;-61
2021/11/25 08:44:43;;;;;;;431.13;405.30;;;6.20;99.90;;;;;;4377255;32;20148;-61
2021/11/25 08:47:10;;;;;;;431.83;406.10;;;6.20;99.90;;;;;;4376541;32;20171;-61
2021/11/25 08:49:37;;;;;;;432.17;406.33;;;6.20;99.90;;;;;;4377413;32;20565;-60
2021/11/25 08:52:05;;;;;;;423.10;398.13;;;6.20;99.90;;;;;;4377098;32;20173;-60
2021/11/25 08:54:32;;;;;;;442.03;415.53;;;6.20;99.90;;;;;;4375704;32;20157;-61
2021/11/25 08:57:00;;;;;;;418.23;394.40;;;6.20;99.90;;;;;;4375998;32;20211;-61
2021/11/25 08:59:27;;;;;;;416.90;391.77;;;6.20;99.90;;;;;;4376245;32;20156;-60
2021/11/25 09:01:54;;;;;;;429.53;403.83;;;6.30;99.90;;;;;;4377211;32;20176;-61
2021/11/25 09:04:21;;;;;;;411.33;387.00;;;6.30;99.90;;;;;;4375393;32;20517;-60
2021/11/25 09:06:48;;;;;;;408.07;384.00;;;6.40;99.90;;;;;;4375244;32;20152;-61
2021/11/25 09:09:15;;;;;;;440.27;413.57;;;6.50;99.90;;;;;;4375709;32;20148;-60
2021/11/25 09:11:43;;;;;;;421.43;395.77;;;6.60;99.90;;;;;;4375545;32;20153;-61
2021/11/25 09:14:11;;;;;;;419.93;395.23;;;6.70;99.90;;;;;;4376036;32;20149;-62
2021/11/25 09:16:38;;;;;;;418.33;393.50;;;6.80;99.90;;;;;;4377111;32;20168;-61
2021/11/25 09:19:06;;;;;;;415.63;390.47;;;6.70;99.90;;;;;;4376341;32;20167;-61
2021/11/25 09:21:33;;;;;;;413.80;389.00;;;6.60;99.90;;;;;;4375366;32;20157;-61
2021/11/25 09:24:00;;;;;;;415.80;391.50;;;6.50;99.90;;;;;;4377152;32;20165;-61
2021/11/25 09:26:27;;;;;;;429.23;403.00;;;6.60;99.90;;;;;;4376935;32;20483;-61
2021/11/25 09:28:57;;;;;;;427.67;401.73;;;6.70;99.90;;;;;;4376922;32;20498;-61
2021/11/25 09:31:27;;;;;;;443.57;415.87;;;6.80;99.90;;;;;;4375309;32;20161;-60
2021/11/25 09:33:54;;;;;;;445.50;419.00;;;6.90;99.90;;;;;;4376680;32;20164;-60
2021/11/25 09:36:21;;;;;;;413.27;388.97;;;7.00;99.90;;;;;;4375360;32;20160;-60
2021/11/25 09:38:48;;;;;;;429.37;404.43;;;6.90;99.90;;;;;;4375270;32;20175;-61
2021/11/25 09:41:15;;;;;;;409.33;384.90;;;7.00;99.90;;;;;;4375249;32;20153;-61
2021/11/25 09:43:42;;;;;;;437.40;411.53;;;7.00;99.90;;;;;;4376416;32;20173;-61
2021/11/25 09:46:10;;;;;;;423.20;398.33;;;6.90;99.90;;;;;;4376965;32;20164;-61
2021/11/25 09:48:41;;;;;;;419.10;395.40;;;6.90;99.90;;;;;;4375125;32;20172;-61
2021/11/25 09:51:09;;;;;;;416.43;391.13;;;6.90;99.90;;;;;;4376862;32;20216;-61
2021/11/25 09:53:38;;;;;;;429.57;403.73;;;6.90;99.90;;;;;;4379473;32;20152;-61
2021/11/25 09:56:07;;;;;;;414.30;389.60;;;6.90;99.90;;;;;;4379385;32;20519;-61
2021/11/25 09:58:35;;;;;;;436.60;410.80;;;7.00;99.90;;;;;;4377938;32;20164;-62
2021/11/25 10:01:05;;;;;;;437.67;412.33;;;7.20;99.90;;;;;;4377905;32;20251;-61
2021/11/25 10:03:33;;;;;;;459.77;432.83;;;7.30;99.90;;;;;;4377912;32;20153;-61
2021/11/25 10:06:03;;;;;;;437.63;411.80;;;7.30;99.90;;;;;;4379356;32;20152;-61
2021/11/25 10:08:32;;;;;;;449.07;421.87;;;7.40;99.90;;;;;;4379363;32;20160;-62
2021/11/25 10:11:08;;;;;;;444.70;419.33;;;7.60;99.90;;;;;;4378864;32;20164;-61
2021/11/25 10:13:38;;;;;;;418.57;394.30;;;7.70;99.90;;;;;;4377500;32;20565;-62
2021/11/25 10:16:09;;;;;;;425.67;401.30;;;7.80;99.90;;;;;;4379471;32;20148;-61
2021/11/25 10:18:38;;;;;;;433.03;408.10;;;8.00;99.90;;;;;;4378598;32;20266;-61
2021/11/25 10:21:10;;;;;;;427.93;403.00;;;8.20;99.90;;;;;;4379258;32;20150;-61
2021/11/25 10:23:37;;;;;;;426.90;401.67;;;8.40;99.90;;;;;;4377615;32;20164;-62
2021/11/25 10:26:07;;;;;;;444.20;419.33;;;8.60;99.90;;;;;;4377495;32;20594;-61
2021/11/25 10:28:41;;;;;;;429.27;405.07;;;8.70;99.90;;;;;;4377571;32;20168;-61
2021/11/25 10:31:11;;;;;;;445.70;420.93;;;8.80;99.90;;;;;;4379005;32;20212;-61
2021/11/25 10:33:48;;;;;;;440.03;415.13;;;8.90;99.90;;;;;;4377315;32;20168;-62
2021/11/25 10:39:15;;;;;;;439.67;414.73;;;8.80;99.90;;;;;;4377584;32;20493;-62
2021/11/25 10:41:47;;;;;;;460.03;434.40;;;8.80;99.90;;;;;;4378991;32;20179;-59
2021/11/25 10:44:22;;;;;;;461.43;435.30;;;8.80;99.90;;;;;;4378660;32;20217;-62
2021/11/25 10:46:54;;;;;;;459.07;433.70;;;8.80;99.90;;;;;;4377274;32;20196;-62
2021/11/25 10:49:34;;;;;;;470.83;444.57;;;8.90;99.90;;;;;;4377195;32;20158;-59
2021/11/25 10:52:08;;;;;;;456.60;431.63;;;9.10;99.90;;;;;;4378790;32;20188;-60
2021/11/25 10:54:40;;;;;;;453.33;428.60;;;9.20;99.90;;;;;;4377083;32;20178;-61
2021/11/25 10:57:07;;;;;;;446.53;421.80;;;9.30;99.90;;;;;;4378443;32;20473;-61
2021/11/25 10:59:39;;;;;;;450.60;425.83;;;9.40;99.90;;;;;;4377177;32;20294;-61
2021/11/25 11:02:29;;;;;;;461.93;436.50;;;9.50;99.90;;;;;;4376979;32;20169;-60
2021/11/25 11:04:58;;;;;;;446.27;421.27;;;9.60;99.90;;;;;;4376771;32;20157;-61
2021/11/25 11:07:30;;;;;;;466.33;441.23;;;9.60;99.90;;;;;;4376977;32;20564;-60
2021/11/25 11:09:58;;;;;;;464.77;439.97;;;9.60;99.90;;;;;;4376921;32;20587;-61
2021/11/25 11:12:31;;;;;;;463.60;438.60;;;9.70;99.90;;;;;;4376687;32;20176;-61
2021/11/25 11:15:12;;;;;;;466.47;441.40;;;9.70;99.90;;;;;;4377300;32;20205;-61
2021/11/25 11:17:59;;;;;;;473.33;448.30;;;9.80;99.90;;;;;;4375259;32;20603;-60
2021/11/25 11:20:27;;;;;;;460.50;435.17;;;9.90;99.90;;;;;;4376479;32;20217;-60
2021/11/25 11:22:57;;;;;;;480.00;454.17;;;10.00;99.90;;;;;;4376813;32;20568;-60
2021/11/25 11:25:26;;;;;;;476.37;450.80;;;10.00;99.90;;;;;;4371920;32;20183;-60
2021/11/25 11:27:55;;;;;;;476.93;451.73;;;10.00;99.90;;;;;;4378049;32;20195;-61
2021/11/25 11:30:22;;;;;;;480.03;454.67;;;10.00;99.90;;;;;;4376293;32;20199;-61
2021/11/25 11:32:50;;;;;;;466.87;441.93;;;10.10;99.90;;;;;;4376582;32;20175;-60
2021/11/25 11:35:20;;;;;;;488.37;462.13;;;10.10;99.90;;;;;;4376607;32;20632;-60
2021/11/25 11:37:48;;;;;;;471.20;445.90;;;10.20;99.90;;;;;;4376643;32;20173;-60
2021/11/25 11:40:16;;;;;;;470.27;445.33;;;10.40;99.90;;;;;;4376515;32;20462;-59
2021/11/25 11:42:44;;;;;;;492.00;465.87;;;10.50;99.90;;;;;;4376287;32;20262;-60
2021/11/25 11:45:12;;;;;;;479.77;454.80;;;10.50;99.90;;;;;;4376285;32;20171;-61
2021/11/25 11:47:39;;;;;;;463.90;439.67;;;10.60;99.90;;;;;;4376296;32;20199;-62
2021/11/25 11:50:09;;;;;;;466.37;442.47;;;10.40;99.90;;;;;;4378025;32;20179;-60
2021/11/25 11:52:52;;;;;;;474.27;450.43;;;10.20;99.90;;;;;;4377915;32;20151;-60
2021/11/25 11:55:29;;;;;;;466.23;442.77;;;10.00;99.90;;;;;;4368624;32;20212;-61
2021/11/25 11:57:56;;;;;;;455.37;433.33;;;10.00;99.90;;;;;;4361396;33;20465;-61
2021/11/25 12:00:34;;;;;;;465.03;442.33;;;9.80;99.90;;;;;;4360898;32;20226;-61
2021/11/25 12:03:01;;;;;;;449.23;427.53;;;9.70;99.90;;;;;;4361840;32;20163;-61
2021/11/25 12:05:50;;;;;;;453.43;431.30;;;9.70;99.90;;;;;;4360991;32;20175;-61
2021/11/25 12:08:42;;;;;;;467.30;445.43;;;9.70;99.90;;;;;;4362797;32;20148;-60
2021/11/25 12:11:14;;;;;;;435.40;414.87;;;9.70;99.90;;;;;;4356540;32;20210;-60
2021/11/25 12:14:07;;;;;;;448.43;428.23;;;9.80;99.90;;;;;;4360186;33;20175;-61
2021/11/25 12:16:37;;;;;;;431.07;411.63;;;9.90;99.90;;;;;;4362107;32;20150;-60
2021/11/25 12:19:08;;;;;;;436.97;416.67;;;9.80;99.90;;;;;;4360386;32;20221;-60
2021/11/25 12:21:41;;;;;;;447.33;427.23;;;9.70;99.90;;;;;;4359853;33;20164;-61
2021/11/25 12:24:18;;;;;;;448.30;427.97;;;9.90;99.90;;;;;;4360297;32;20164;-61
2021/11/25 12:27:16;;;;;;;461.67;440.37;;;9.80;99.90;;;;;;4361821;32;20169;-61
2021/11/25 12:29:48;;;;;;;429.10;410.17;;;10.00;99.90;;;;;;4360162;33;20505;-61